Keilor, Australia
Current Conditions -  °F | °C
As of 1:00 PM on Tuesday 23 Dec 2014 (Local Time) from YMML Reporting Station
Clear Clear  
Wind Chill: 81°   Ceiling: Unl
Heat Index: 81°   Visibility: 6mi
Dew Point: 54°   Wind: 14mph
Humidity: 39%   Direction: 300°WNW
Pressure: 29.74"   Gusts: NA
Location:  37.72°S, 144.83°E
Report Text: YMML 230200Z 30012KT CAVOK 27/12 Q1007 FM0200 17010KT 9999 -SHRA FEW030 BKN080 INTER 0230/0500 5000 SHRA BKN015
Loading
Personal Weather Stations






























Interactive Weather Map New forecast layout! Learn more

10-Day Weather Forecast

Advertisements
Track Severe Weather on mobile